sensor_id;sensor_type;location;lat;lon;timestamp;P1;durP1;ratioP1;P2;durP2;ratioP2
27822;SDS011;29019;47.630;8.262;2023-05-31T00:01:56;139.43;;;67.57;;
27822;SDS011;29019;47.630;8.262;2023-05-31T00:05:57;142.55;;;69.13;;
27822;SDS011;29019;47.630;8.262;2023-05-31T00:09:57;134.20;;;69.25;;
27822;SDS011;29019;47.630;8.262;2023-05-31T00:13:58;140.88;;;67.35;;
27822;SDS011;29019;47.630;8.262;2023-05-31T00:17:58;124.55;;;63.70;;
27822;SDS011;29019;47.630;8.262;2023-05-31T00:21:59;128.65;;;64.03;;
27822;SDS011;29019;47.630;8.262;2023-05-31T00:26:00;131.77;;;65.55;;
27822;SDS011;29019;47.630;8.262;2023-05-31T00:30:01;126.97;;;63.10;;
27822;SDS011;29019;47.630;8.262;2023-05-31T00:38:04;123.97;;;63.23;;
27822;SDS011;29019;47.630;8.262;2023-05-31T00:42:06;126.82;;;61.30;;
27822;SDS011;29019;47.630;8.262;2023-05-31T00:46:09;125.63;;;61.42;;
27822;SDS011;29019;47.630;8.262;2023-05-31T00:50:19;124.40;;;61.80;;
27822;SDS011;29019;47.630;8.262;2023-05-31T00:54:20;112.88;;;59.38;;
27822;SDS011;29019;47.630;8.262;2023-05-31T00:58:21;112.70;;;58.65;;
27822;SDS011;29019;47.630;8.262;2023-05-31T01:02:23;121.88;;;61.35;;
27822;SDS011;29019;47.630;8.262;2023-05-31T01:06:23;121.07;;;59.70;;
27822;SDS011;29019;47.630;8.262;2023-05-31T01:10:24;115.80;;;60.40;;
27822;SDS011;29019;47.630;8.262;2023-05-31T01:18:41;104.78;;;56.55;;
27822;SDS011;29019;47.630;8.262;2023-05-31T01:22:46;116.05;;;57.08;;
27822;SDS011;29019;47.630;8.262;2023-05-31T01:26:52;100.00;;;54.30;;
27822;SDS011;29019;47.630;8.262;2023-05-31T01:31:00;107.72;;;53.20;;
27822;SDS011;29019;47.630;8.262;2023-05-31T01:35:09;106.10;;;53.80;;
27822;SDS011;29019;47.630;8.262;2023-05-31T01:39:10;96.35;;;52.20;;
27822;SDS011;29019;47.630;8.262;2023-05-31T01:43:11;105.35;;;53.60;;
27822;SDS011;29019;47.630;8.262;2023-05-31T01:47:13;98.57;;;52.42;;
27822;SDS011;29019;47.630;8.262;2023-05-31T01:51:15;92.55;;;49.65;;
27822;SDS011;29019;47.630;8.262;2023-05-31T01:55:16;97.13;;;51.17;;
27822;SDS011;29019;47.630;8.262;2023-05-31T01:59:17;94.43;;;49.83;;
27822;SDS011;29019;47.630;8.262;2023-05-31T02:07:19;103.27;;;51.10;;
27822;SDS011;29019;47.630;8.262;2023-05-31T02:11:21;90.97;;;50.08;;
27822;SDS011;29019;47.630;8.262;2023-05-31T02:15:22;94.38;;;49.92;;
27822;SDS011;29019;47.630;8.262;2023-05-31T02:19:23;93.47;;;46.92;;
27822;SDS011;29019;47.630;8.262;2023-05-31T02:23:25;87.20;;;48.10;;
27822;SDS011;29019;47.630;8.262;2023-05-31T02:27:26;85.85;;;46.72;;
27822;SDS011;29019;47.630;8.262;2023-05-31T02:31:29;93.47;;;50.42;;
27822;SDS011;29019;47.630;8.262;2023-05-31T02:35:29;82.57;;;46.00;;
27822;SDS011;29019;47.630;8.262;2023-05-31T02:39:30;87.75;;;46.03;;
27822;SDS011;29019;47.630;8.262;2023-05-31T02:43:31;84.97;;;45.80;;
27822;SDS011;29019;47.630;8.262;2023-05-31T02:47:31;82.25;;;44.42;;
27822;SDS011;29019;47.630;8.262;2023-05-31T02:51:32;77.78;;;43.72;;
27822;SDS011;29019;47.630;8.262;2023-05-31T02:55:33;80.50;;;45.00;;
27822;SDS011;29019;47.630;8.262;2023-05-31T02:59:33;84.35;;;45.38;;
27822;SDS011;29019;47.630;8.262;2023-05-31T03:03:34;75.90;;;44.33;;
27822;SDS011;29019;47.630;8.262;2023-05-31T03:07:35;79.35;;;43.78;;
27822;SDS011;29019;47.630;8.262;2023-05-31T03:11:36;74.28;;;43.05;;
27822;SDS011;29019;47.630;8.262;2023-05-31T03:15:36;76.05;;;43.85;;
27822;SDS011;29019;47.630;8.262;2023-05-31T03:19:38;74.55;;;42.40;;
27822;SDS011;29019;47.630;8.262;2023-05-31T03:23:38;72.97;;;42.13;;
27822;SDS011;29019;47.630;8.262;2023-05-31T03:27:39;74.72;;;43.83;;
27822;SDS011;29019;47.630;8.262;2023-05-31T03:31:40;81.32;;;44.60;;
27822;SDS011;29019;47.630;8.262;2023-05-31T03:35:41;75.85;;;42.97;;
27822;SDS011;29019;47.630;8.262;2023-05-31T03:39:41;74.70;;;43.13;;
27822;SDS011;29019;47.630;8.262;2023-05-31T03:43:42;76.75;;;44.15;;
27822;SDS011;29019;47.630;8.262;2023-05-31T03:47:43;69.45;;;42.63;;
27822;SDS011;29019;47.630;8.262;2023-05-31T03:51:43;73.93;;;42.22;;
27822;SDS011;29019;47.630;8.262;2023-05-31T03:55:44;74.93;;;43.20;;
27822;SDS011;29019;47.630;8.262;2023-05-31T03:59:45;70.10;;;41.03;;
27822;SDS011;29019;47.630;8.262;2023-05-31T04:03:45;66.38;;;40.72;;
27822;SDS011;29019;47.630;8.262;2023-05-31T04:07:46;72.40;;;41.50;;
27822;SDS011;29019;47.630;8.262;2023-05-31T04:11:46;65.22;;;42.25;;
27822;SDS011;29019;47.630;8.262;2023-05-31T04:15:47;68.15;;;41.20;;
27822;SDS011;29019;47.630;8.262;2023-05-31T04:19:48;69.65;;;41.92;;
27822;SDS011;29019;47.630;8.262;2023-05-31T04:23:48;71.60;;;41.40;;
27822;SDS011;29019;47.630;8.262;2023-05-31T04:27:49;70.40;;;40.55;;
27822;SDS011;29019;47.630;8.262;2023-05-31T04:31:50;62.30;;;37.50;;
27822;SDS011;29019;47.630;8.262;2023-05-31T04:35:51;68.85;;;39.75;;
27822;SDS011;29019;47.630;8.262;2023-05-31T04:39:51;67.60;;;39.22;;
27822;SDS011;29019;47.630;8.262;2023-05-31T04:43:53;65.28;;;40.90;;
27822;SDS011;29019;47.630;8.262;2023-05-31T04:47:53;64.63;;;39.10;;
27822;SDS011;29019;47.630;8.262;2023-05-31T04:51:55;60.38;;;38.03;;
27822;SDS011;29019;47.630;8.262;2023-05-31T04:55:56;67.28;;;39.58;;
27822;SDS011;29019;47.630;8.262;2023-05-31T04:59:57;59.88;;;37.63;;
27822;SDS011;29019;47.630;8.262;2023-05-31T05:03:58;57.88;;;37.80;;
27822;SDS011;29019;47.630;8.262;2023-05-31T05:07:58;56.17;;;36.40;;
27822;SDS011;29019;47.630;8.262;2023-05-31T05:11:59;61.67;;;37.83;;
27822;SDS011;29019;47.630;8.262;2023-05-31T05:16:00;61.58;;;36.95;;
27822;SDS011;29019;47.630;8.262;2023-05-31T05:20:02;63.65;;;37.10;;
27822;SDS011;29019;47.630;8.262;2023-05-31T05:24:05;61.30;;;35.83;;
27822;SDS011;29019;47.630;8.262;2023-05-31T05:28:06;55.42;;;35.42;;
27822;SDS011;29019;47.630;8.262;2023-05-31T05:32:06;59.65;;;36.92;;
27822;SDS011;29019;47.630;8.262;2023-05-31T05:36:07;57.50;;;36.17;;
27822;SDS011;29019;47.630;8.262;2023-05-31T05:40:08;55.75;;;34.83;;
27822;SDS011;29019;47.630;8.262;2023-05-31T05:44:09;54.55;;;33.78;;
27822;SDS011;29019;47.630;8.262;2023-05-31T05:48:10;53.08;;;33.97;;
27822;SDS011;29019;47.630;8.262;2023-05-31T05:52:11;56.08;;;34.55;;
27822;SDS011;29019;47.630;8.262;2023-05-31T05:56:12;51.70;;;33.58;;
27822;SDS011;29019;47.630;8.262;2023-05-31T06:00:18;49.10;;;34.40;;
27822;SDS011;29019;47.630;8.262;2023-05-31T06:04:19;52.33;;;33.60;;
27822;SDS011;29019;47.630;8.262;2023-05-31T06:08:19;50.10;;;33.85;;
27822;SDS011;29019;47.630;8.262;2023-05-31T06:12:20;54.83;;;33.72;;
27822;SDS011;29019;47.630;8.262;2023-05-31T06:16:21;48.92;;;32.55;;
27822;SDS011;29019;47.630;8.262;2023-05-31T06:24:23;51.13;;;33.97;;
27822;SDS011;29019;47.630;8.262;2023-05-31T06:28:23;50.90;;;32.70;;
27822;SDS011;29019;47.630;8.262;2023-05-31T06:32:24;47.70;;;30.92;;
27822;SDS011;29019;47.630;8.262;2023-05-31T06:40:26;45.40;;;29.33;;
27822;SDS011;29019;47.630;8.262;2023-05-31T06:44:26;48.38;;;30.58;;
27822;SDS011;29019;47.630;8.262;2023-05-31T06:48:27;50.05;;;32.75;;
27822;SDS011;29019;47.630;8.262;2023-05-31T06:52:28;48.33;;;29.77;;
27822;SDS011;29019;47.630;8.262;2023-05-31T06:56:29;45.83;;;28.88;;
27822;SDS011;29019;47.630;8.262;2023-05-31T07:00:30;45.13;;;28.55;;
27822;SDS011;29019;47.630;8.262;2023-05-31T07:04:30;45.47;;;30.35;;
27822;SDS011;29019;47.630;8.262;2023-05-31T07:08:31;47.75;;;28.63;;
27822;SDS011;29019;47.630;8.262;2023-05-31T07:12:31;44.30;;;28.95;;
27822;SDS011;29019;47.630;8.262;2023-05-31T07:16:32;43.08;;;29.20;;
27822;SDS011;29019;47.630;8.262;2023-05-31T07:20:33;44.83;;;28.63;;
27822;SDS011;29019;47.630;8.262;2023-05-31T07:24:33;44.85;;;29.42;;
27822;SDS011;29019;47.630;8.262;2023-05-31T07:28:34;46.97;;;29.60;;
27822;SDS011;29019;47.630;8.262;2023-05-31T07:32:35;43.33;;;27.75;;
27822;SDS011;29019;47.630;8.262;2023-05-31T07:36:35;41.22;;;26.33;;
27822;SDS011;29019;47.630;8.262;2023-05-31T07:40:36;40.75;;;27.55;;
27822;SDS011;29019;47.630;8.262;2023-05-31T07:44:36;40.83;;;26.70;;
27822;SDS011;29019;47.630;8.262;2023-05-31T07:48:37;42.00;;;27.30;;
27822;SDS011;29019;47.630;8.262;2023-05-31T07:52:38;39.58;;;25.55;;
27822;SDS011;29019;47.630;8.262;2023-05-31T07:56:38;41.97;;;26.42;;
27822;SDS011;29019;47.630;8.262;2023-05-31T08:00:40;40.22;;;26.02;;
27822;SDS011;29019;47.630;8.262;2023-05-31T08:04:40;41.78;;;26.90;;
27822;SDS011;29019;47.630;8.262;2023-05-31T08:08:41;38.97;;;26.05;;
27822;SDS011;29019;47.630;8.262;2023-05-31T08:12:42;39.50;;;26.58;;
27822;SDS011;29019;47.630;8.262;2023-05-31T08:16:43;39.30;;;26.45;;
27822;SDS011;29019;47.630;8.262;2023-05-31T08:20:44;37.75;;;25.88;;
27822;SDS011;29019;47.630;8.262;2023-05-31T08:24:45;41.55;;;26.10;;
27822;SDS011;29019;47.630;8.262;2023-05-31T08:28:46;36.95;;;25.02;;
27822;SDS011;29019;47.630;8.262;2023-05-31T08:32:46;34.80;;;24.80;;
27822;SDS011;29019;47.630;8.262;2023-05-31T08:36:47;38.33;;;25.63;;
27822;SDS011;29019;47.630;8.262;2023-05-31T08:40:47;39.35;;;25.10;;
27822;SDS011;29019;47.630;8.262;2023-05-31T08:44:49;36.63;;;24.38;;
27822;SDS011;29019;47.630;8.262;2023-05-31T08:48:54;37.53;;;24.77;;
27822;SDS011;29019;47.630;8.262;2023-05-31T08:53:00;34.97;;;24.10;;
27822;SDS011;29019;47.630;8.262;2023-05-31T08:57:02;34.47;;;23.58;;
27822;SDS011;29019;47.630;8.262;2023-05-31T09:01:04;33.78;;;22.50;;
27822;SDS011;29019;47.630;8.262;2023-05-31T09:05:05;33.15;;;23.02;;
27822;SDS011;29019;47.630;8.262;2023-05-31T09:09:10;35.17;;;23.20;;
27822;SDS011;29019;47.630;8.262;2023-05-31T09:13:11;33.53;;;22.52;;
27822;SDS011;29019;47.630;8.262;2023-05-31T09:17:12;34.28;;;22.63;;
27822;SDS011;29019;47.630;8.262;2023-05-31T09:21:13;31.95;;;23.00;;
27822;SDS011;29019;47.630;8.262;2023-05-31T09:25:15;36.50;;;24.13;;
27822;SDS011;29019;47.630;8.262;2023-05-31T09:29:15;33.22;;;22.95;;
27822;SDS011;29019;47.630;8.262;2023-05-31T09:33:18;31.02;;;21.90;;
27822;SDS011;29019;47.630;8.262;2023-05-31T09:37:22;32.63;;;21.70;;
27822;SDS011;29019;47.630;8.262;2023-05-31T09:41:24;32.03;;;21.90;;
27822;SDS011;29019;47.630;8.262;2023-05-31T09:45:25;31.77;;;22.58;;
27822;SDS011;29019;47.630;8.262;2023-05-31T09:49:28;32.28;;;22.27;;
27822;SDS011;29019;47.630;8.262;2023-05-31T09:53:29;36.25;;;21.75;;
27822;SDS011;29019;47.630;8.262;2023-05-31T09:57:33;30.67;;;22.50;;
27822;SDS011;29019;47.630;8.262;2023-05-31T10:01:44;30.85;;;20.55;;
27822;SDS011;29019;47.630;8.262;2023-05-31T10:05:45;29.23;;;19.88;;
27822;SDS011;29019;47.630;8.262;2023-05-31T10:09:46;29.23;;;20.90;;
27822;SDS011;29019;47.630;8.262;2023-05-31T10:13:47;28.88;;;20.25;;
27822;SDS011;29019;47.630;8.262;2023-05-31T10:21:58;31.10;;;21.00;;
27822;SDS011;29019;47.630;8.262;2023-05-31T10:26:15;33.95;;;21.35;;
27822;SDS011;29019;47.630;8.262;2023-05-31T10:30:20;29.77;;;20.15;;
27822;SDS011;29019;47.630;8.262;2023-05-31T10:34:26;29.50;;;20.33;;
27822;SDS011;29019;47.630;8.262;2023-05-31T10:38:30;27.38;;;19.02;;
27822;SDS011;29019;47.630;8.262;2023-05-31T10:46:56;29.60;;;20.58;;
27822;SDS011;29019;47.630;8.262;2023-05-31T10:51:03;26.38;;;19.42;;
27822;SDS011;29019;47.630;8.262;2023-05-31T10:55:17;25.33;;;18.58;;
27822;SDS011;29019;47.630;8.262;2023-05-31T10:59:17;27.70;;;19.10;;
27822;SDS011;29019;47.630;8.262;2023-05-31T11:03:23;25.52;;;17.75;;
27822;SDS011;29019;47.630;8.262;2023-05-31T11:07:24;24.90;;;18.67;;
27822;SDS011;29019;47.630;8.262;2023-05-31T11:15:38;27.80;;;19.52;;
27822;SDS011;29019;47.630;8.262;2023-05-31T11:19:50;26.83;;;17.73;;
27822;SDS011;29019;47.630;8.262;2023-05-31T11:23:54;28.25;;;17.67;;
27822;SDS011;29019;47.630;8.262;2023-05-31T11:28:05;27.23;;;17.70;;
27822;SDS011;29019;47.630;8.262;2023-05-31T11:32:06;24.57;;;17.73;;
27822;SDS011;29019;47.630;8.262;2023-05-31T11:36:07;24.42;;;17.50;;
27822;SDS011;29019;47.630;8.262;2023-05-31T11:40:09;24.52;;;17.35;;
27822;SDS011;29019;47.630;8.262;2023-05-31T11:44:16;25.38;;;17.50;;
27822;SDS011;29019;47.630;8.262;2023-05-31T11:48:58;24.42;;;16.63;;
27822;SDS011;29019;47.630;8.262;2023-05-31T11:52:52;22.83;;;16.75;;
27822;SDS011;29019;47.630;8.262;2023-05-31T11:57:05;25.58;;;17.23;;
27822;SDS011;29019;47.630;8.262;2023-05-31T12:01:09;24.65;;;16.95;;
27822;SDS011;29019;47.630;8.262;2023-05-31T12:05:14;25.75;;;17.25;;
27822;SDS011;29019;47.630;8.262;2023-05-31T12:09:18;24.95;;;17.40;;
27822;SDS011;29019;47.630;8.262;2023-05-31T12:13:19;22.02;;;16.60;;
27822;SDS011;29019;47.630;8.262;2023-05-31T12:17:20;22.35;;;16.35;;
27822;SDS011;29019;47.630;8.262;2023-05-31T12:21:21;21.85;;;16.05;;
27822;SDS011;29019;47.630;8.262;2023-05-31T12:25:22;23.42;;;15.85;;
27822;SDS011;29019;47.630;8.262;2023-05-31T12:29:25;23.27;;;15.80;;
27822;SDS011;29019;47.630;8.262;2023-05-31T12:33:28;21.13;;;15.43;;
27822;SDS011;29019;47.630;8.262;2023-05-31T12:37:36;23.13;;;15.48;;
27822;SDS011;29019;47.630;8.262;2023-05-31T12:41:41;22.27;;;16.75;;
27822;SDS011;29019;47.630;8.262;2023-05-31T12:45:43;20.98;;;15.45;;
27822;SDS011;29019;47.630;8.262;2023-05-31T12:49:44;23.45;;;16.17;;
27822;SDS011;29019;47.630;8.262;2023-05-31T12:53:45;18.67;;;14.90;;
27822;SDS011;29019;47.630;8.262;2023-05-31T12:57:45;21.65;;;15.48;;
27822;SDS011;29019;47.630;8.262;2023-05-31T13:01:46;22.40;;;15.43;;
27822;SDS011;29019;47.630;8.262;2023-05-31T13:05:47;21.23;;;15.40;;
27822;SDS011;29019;47.630;8.262;2023-05-31T13:09:48;19.38;;;14.68;;
27822;SDS011;29019;47.630;8.262;2023-05-31T13:13:48;21.65;;;15.85;;
27822;SDS011;29019;47.630;8.262;2023-05-31T13:17:49;20.90;;;14.90;;
27822;SDS011;29019;47.630;8.262;2023-05-31T13:21:51;18.80;;;13.70;;
27822;SDS011;29019;47.630;8.262;2023-05-31T13:25:52;19.30;;;14.70;;
27822;SDS011;29019;47.630;8.262;2023-05-31T13:29:52;19.88;;;14.15;;
27822;SDS011;29019;47.630;8.262;2023-05-31T13:33:53;19.23;;;13.90;;
27822;SDS011;29019;47.630;8.262;2023-05-31T13:37:55;19.83;;;14.15;;
27822;SDS011;29019;47.630;8.262;2023-05-31T13:41:55;17.17;;;12.20;;
27822;SDS011;29019;47.630;8.262;2023-05-31T13:45:57;14.30;;;8.13;;
27822;SDS011;29019;47.630;8.262;2023-05-31T13:49:58;18.13;;;7.95;;
27822;SDS011;29019;47.630;8.262;2023-05-31T13:53:59;14.75;;;8.35;;
27822;SDS011;29019;47.630;8.262;2023-05-31T13:58:00;11.25;;;8.20;;
27822;SDS011;29019;47.630;8.262;2023-05-31T14:02:00;16.10;;;8.52;;
27822;SDS011;29019;47.630;8.262;2023-05-31T14:06:01;13.73;;;7.80;;
27822;SDS011;29019;47.630;8.262;2023-05-31T14:10:04;12.18;;;7.97;;
27822;SDS011;29019;47.630;8.262;2023-05-31T14:14:06;12.35;;;7.65;;
27822;SDS011;29019;47.630;8.262;2023-05-31T14:18:07;12.18;;;8.13;;
27822;SDS011;29019;47.630;8.262;2023-05-31T14:26:08;9.77;;;6.97;;
27822;SDS011;29019;47.630;8.262;2023-05-31T14:30:09;10.07;;;7.18;;
27822;SDS011;29019;47.630;8.262;2023-05-31T14:34:10;13.30;;;7.28;;
27822;SDS011;29019;47.630;8.262;2023-05-31T14:38:11;11.63;;;7.45;;
27822;SDS011;29019;47.630;8.262;2023-05-31T14:42:11;10.88;;;7.03;;
27822;SDS011;29019;47.630;8.262;2023-05-31T14:46:12;11.13;;;7.45;;
27822;SDS011;29019;47.630;8.262;2023-05-31T14:50:13;13.10;;;7.28;;
27822;SDS011;29019;47.630;8.262;2023-05-31T14:54:14;8.85;;;7.00;;
27822;SDS011;29019;47.630;8.262;2023-05-31T14:58:15;11.48;;;7.50;;
27822;SDS011;29019;47.630;8.262;2023-05-31T15:02:15;11.87;;;7.20;;
27822;SDS011;29019;47.630;8.262;2023-05-31T15:06:16;11.23;;;6.35;;
27822;SDS011;29019;47.630;8.262;2023-05-31T15:10:17;12.73;;;6.72;;
27822;SDS011;29019;47.630;8.262;2023-05-31T15:14:17;9.55;;;6.25;;
27822;SDS011;29019;47.630;8.262;2023-05-31T15:18:18;10.38;;;6.80;;
27822;SDS011;29019;47.630;8.262;2023-05-31T15:22:19;8.43;;;6.25;;
27822;SDS011;29019;47.630;8.262;2023-05-31T15:26:19;11.27;;;6.43;;
27822;SDS011;29019;47.630;8.262;2023-05-31T15:30:22;11.70;;;6.57;;
27822;SDS011;29019;47.630;8.262;2023-05-31T15:34:22;11.57;;;6.15;;
27822;SDS011;29019;47.630;8.262;2023-05-31T15:38:23;9.70;;;6.13;;
27822;SDS011;29019;47.630;8.262;2023-05-31T15:42:24;10.15;;;6.22;;
27822;SDS011;29019;47.630;8.262;2023-05-31T15:46:25;9.20;;;6.03;;
27822;SDS011;29019;47.630;8.262;2023-05-31T15:50:25;8.68;;;5.32;;
27822;SDS011;29019;47.630;8.262;2023-05-31T15:54:26;8.27;;;5.30;;
27822;SDS011;29019;47.630;8.262;2023-05-31T15:58:27;8.98;;;4.80;;
27822;SDS011;29019;47.630;8.262;2023-05-31T16:02:27;10.18;;;5.88;;
27822;SDS011;29019;47.630;8.262;2023-05-31T16:06:28;12.00;;;5.82;;
27822;SDS011;29019;47.630;8.262;2023-05-31T16:10:30;10.63;;;5.95;;
27822;SDS011;29019;47.630;8.262;2023-05-31T16:14:31;11.10;;;5.63;;
27822;SDS011;29019;47.630;8.262;2023-05-31T16:18:31;8.82;;;5.90;;
27822;SDS011;29019;47.630;8.262;2023-05-31T16:22:32;9.48;;;5.18;;
27822;SDS011;29019;47.630;8.262;2023-05-31T16:26:33;10.02;;;5.10;;
27822;SDS011;29019;47.630;8.262;2023-05-31T16:30:33;7.50;;;5.05;;
27822;SDS011;29019;47.630;8.262;2023-05-31T16:34:34;8.88;;;5.60;;
27822;SDS011;29019;47.630;8.262;2023-05-31T16:38:35;6.10;;;4.95;;
27822;SDS011;29019;47.630;8.262;2023-05-31T16:42:35;9.27;;;5.32;;
27822;SDS011;29019;47.630;8.262;2023-05-31T16:46:36;9.18;;;5.00;;
27822;SDS011;29019;47.630;8.262;2023-05-31T16:50:37;6.90;;;5.07;;
27822;SDS011;29019;47.630;8.262;2023-05-31T16:54:37;8.40;;;5.28;;
27822;SDS011;29019;47.630;8.262;2023-05-31T16:58:38;7.18;;;4.78;;
27822;SDS011;29019;47.630;8.262;2023-05-31T17:02:38;7.72;;;4.88;;
27822;SDS011;29019;47.630;8.262;2023-05-31T17:06:39;5.18;;;3.97;;
27822;SDS011;29019;47.630;8.262;2023-05-31T17:10:40;8.75;;;4.53;;
27822;SDS011;29019;47.630;8.262;2023-05-31T17:14:42;9.02;;;4.95;;
27822;SDS011;29019;47.630;8.262;2023-05-31T17:18:43;7.00;;;4.63;;
27822;SDS011;29019;47.630;8.262;2023-05-31T17:22:44;10.90;;;5.10;;
27822;SDS011;29019;47.630;8.262;2023-05-31T17:26:45;5.75;;;4.30;;
27822;SDS011;29019;47.630;8.262;2023-05-31T17:30:47;7.22;;;4.53;;
27822;SDS011;29019;47.630;8.262;2023-05-31T17:34:48;6.93;;;4.43;;
27822;SDS011;29019;47.630;8.262;2023-05-31T17:38:49;7.15;;;4.72;;
27822;SDS011;29019;47.630;8.262;2023-05-31T17:42:50;7.35;;;4.70;;
27822;SDS011;29019;47.630;8.262;2023-05-31T17:46:50;6.65;;;4.93;;
27822;SDS011;29019;47.630;8.262;2023-05-31T17:50:51;7.80;;;4.38;;
27822;SDS011;29019;47.630;8.262;2023-05-31T17:54:52;6.05;;;4.50;;
27822;SDS011;29019;47.630;8.262;2023-05-31T17:58:52;6.28;;;4.55;;
27822;SDS011;29019;47.630;8.262;2023-05-31T18:02:53;5.40;;;4.32;;
27822;SDS011;29019;47.630;8.262;2023-05-31T18:06:53;5.65;;;4.43;;
27822;SDS011;29019;47.630;8.262;2023-05-31T18:10:54;6.28;;;4.07;;
27822;SDS011;29019;47.630;8.262;2023-05-31T18:14:55;4.65;;;4.15;;
27822;SDS011;29019;47.630;8.262;2023-05-31T18:18:55;5.88;;;4.20;;
27822;SDS011;29019;47.630;8.262;2023-05-31T18:22:56;6.22;;;4.28;;
27822;SDS011;29019;47.630;8.262;2023-05-31T18:27:15;5.75;;;3.83;;
27822;SDS011;29019;47.630;8.262;2023-05-31T18:31:18;7.47;;;4.10;;
27822;SDS011;29019;47.630;8.262;2023-05-31T18:35:19;5.72;;;3.90;;
27822;SDS011;29019;47.630;8.262;2023-05-31T18:39:19;7.05;;;3.80;;
27822;SDS011;29019;47.630;8.262;2023-05-31T18:43:20;6.15;;;3.88;;
27822;SDS011;29019;47.630;8.262;2023-05-31T18:47:22;8.13;;;4.30;;
27822;SDS011;29019;47.630;8.262;2023-05-31T18:51:23;4.65;;;3.35;;
27822;SDS011;29019;47.630;8.262;2023-05-31T18:55:24;5.25;;;3.92;;
27822;SDS011;29019;47.630;8.262;2023-05-31T18:59:25;5.80;;;3.83;;
27822;SDS011;29019;47.630;8.262;2023-05-31T19:03:25;5.88;;;4.15;;
27822;SDS011;29019;47.630;8.262;2023-05-31T19:07:27;5.65;;;4.10;;
27822;SDS011;29019;47.630;8.262;2023-05-31T19:15:28;5.60;;;3.60;;
27822;SDS011;29019;47.630;8.262;2023-05-31T19:19:29;6.00;;;4.20;;
27822;SDS011;29019;47.630;8.262;2023-05-31T19:23:30;6.38;;;3.88;;
27822;SDS011;29019;47.630;8.262;2023-05-31T19:27:31;4.22;;;3.42;;
27822;SDS011;29019;47.630;8.262;2023-05-31T19:31:32;5.03;;;3.65;;
27822;SDS011;29019;47.630;8.262;2023-05-31T19:35:33;5.45;;;3.72;;
27822;SDS011;29019;47.630;8.262;2023-05-31T19:39:33;4.90;;;3.50;;
27822;SDS011;29019;47.630;8.262;2023-05-31T19:43:34;5.13;;;3.95;;
27822;SDS011;29019;47.630;8.262;2023-05-31T19:47:34;5.00;;;3.80;;
27822;SDS011;29019;47.630;8.262;2023-05-31T19:51:35;4.25;;;3.63;;
27822;SDS011;29019;47.630;8.262;2023-05-31T19:55:36;4.13;;;3.38;;
27822;SDS011;29019;47.630;8.262;2023-05-31T19:59:38;4.90;;;3.90;;
27822;SDS011;29019;47.630;8.262;2023-05-31T20:03:38;4.47;;;3.13;;
27822;SDS011;29019;47.630;8.262;2023-05-31T20:07:39;4.18;;;3.28;;
27822;SDS011;29019;47.630;8.262;2023-05-31T20:11:40;4.75;;;3.47;;
27822;SDS011;29019;47.630;8.262;2023-05-31T20:15:40;4.95;;;3.33;;
27822;SDS011;29019;47.630;8.262;2023-05-31T20:19:43;5.80;;;3.50;;
27822;SDS011;29019;47.630;8.262;2023-05-31T20:23:44;4.15;;;2.90;;
27822;SDS011;29019;47.630;8.262;2023-05-31T20:27:44;5.80;;;3.65;;
27822;SDS011;29019;47.630;8.262;2023-05-31T20:31:45;4.38;;;3.33;;
27822;SDS011;29019;47.630;8.262;2023-05-31T20:35:46;4.38;;;3.53;;
27822;SDS011;29019;47.630;8.262;2023-05-31T20:39:48;4.40;;;3.10;;
27822;SDS011;29019;47.630;8.262;2023-05-31T20:43:48;3.45;;;3.03;;
27822;SDS011;29019;47.630;8.262;2023-05-31T20:47:49;4.38;;;3.35;;
27822;SDS011;29019;47.630;8.262;2023-05-31T20:51:50;5.15;;;3.40;;
27822;SDS011;29019;47.630;8.262;2023-05-31T20:55:50;3.70;;;2.95;;
27822;SDS011;29019;47.630;8.262;2023-05-31T20:59:51;5.22;;;3.10;;
27822;SDS011;29019;47.630;8.262;2023-05-31T21:03:53;4.05;;;3.03;;
27822;SDS011;29019;47.630;8.262;2023-05-31T21:07:56;4.25;;;3.15;;
27822;SDS011;29019;47.630;8.262;2023-05-31T21:11:57;4.47;;;3.15;;
27822;SDS011;29019;47.630;8.262;2023-05-31T21:15:58;3.70;;;2.97;;
27822;SDS011;29019;47.630;8.262;2023-05-31T21:19:58;3.97;;;3.08;;
27822;SDS011;29019;47.630;8.262;2023-05-31T21:23:59;3.20;;;2.47;;
27822;SDS011;29019;47.630;8.262;2023-05-31T21:28:01;4.45;;;2.92;;
27822;SDS011;29019;47.630;8.262;2023-05-31T21:32:02;3.88;;;2.70;;
27822;SDS011;29019;47.630;8.262;2023-05-31T21:36:03;3.90;;;3.22;;
27822;SDS011;29019;47.630;8.262;2023-05-31T21:40:04;3.80;;;3.13;;
27822;SDS011;29019;47.630;8.262;2023-05-31T21:44:05;4.15;;;3.05;;
27822;SDS011;29019;47.630;8.262;2023-05-31T21:48:05;3.60;;;2.88;;
27822;SDS011;29019;47.630;8.262;2023-05-31T21:52:06;4.30;;;2.65;;
27822;SDS011;29019;47.630;8.262;2023-05-31T21:56:07;4.47;;;3.13;;
27822;SDS011;29019;47.630;8.262;2023-05-31T22:00:08;4.72;;;2.97;;
27822;SDS011;29019;47.630;8.262;2023-05-31T22:04:11;3.70;;;3.00;;
27822;SDS011;29019;47.630;8.262;2023-05-31T22:08:11;3.58;;;2.85;;
27822;SDS011;29019;47.630;8.262;2023-05-31T22:12:12;3.65;;;2.80;;
27822;SDS011;29019;47.630;8.262;2023-05-31T22:16:12;3.83;;;2.83;;
27822;SDS011;29019;47.630;8.262;2023-05-31T22:20:16;2.80;;;2.60;;
27822;SDS011;29019;47.630;8.262;2023-05-31T22:24:17;4.20;;;2.90;;
27822;SDS011;29019;47.630;8.262;2023-05-31T22:28:18;2.88;;;2.53;;
27822;SDS011;29019;47.630;8.262;2023-05-31T22:32:19;3.55;;;2.70;;
27822;SDS011;29019;47.630;8.262;2023-05-31T22:36:20;3.92;;;3.05;;
27822;SDS011;29019;47.630;8.262;2023-05-31T22:40:21;2.75;;;2.45;;
27822;SDS011;29019;47.630;8.262;2023-05-31T22:44:21;3.10;;;2.60;;
27822;SDS011;29019;47.630;8.262;2023-05-31T22:48:22;3.35;;;2.55;;
27822;SDS011;29019;47.630;8.262;2023-05-31T22:52:24;3.80;;;2.72;;
27822;SDS011;29019;47.630;8.262;2023-05-31T23:00:26;3.73;;;2.73;;
27822;SDS011;29019;47.630;8.262;2023-05-31T23:04:27;4.05;;;2.78;;
27822;SDS011;29019;47.630;8.262;2023-05-31T23:08:27;3.45;;;3.15;;
27822;SDS011;29019;47.630;8.262;2023-05-31T23:12:30;3.80;;;2.50;;
27822;SDS011;29019;47.630;8.262;2023-05-31T23:16:31;4.00;;;2.42;;
27822;SDS011;29019;47.630;8.262;2023-05-31T23:20:36;2.58;;;2.30;;
27822;SDS011;29019;47.630;8.262;2023-05-31T23:24:38;3.33;;;2.58;;
27822;SDS011;29019;47.630;8.262;2023-05-31T23:28:40;2.55;;;2.25;;
27822;SDS011;29019;47.630;8.262;2023-05-31T23:32:41;3.13;;;2.47;;
27822;SDS011;29019;47.630;8.262;2023-05-31T23:36:41;3.90;;;2.65;;
27822;SDS011;29019;47.630;8.262;2023-05-31T23:40:42;2.67;;;2.40;;
27822;SDS011;29019;47.630;8.262;2023-05-31T23:48:44;3.70;;;2.63;;
27822;SDS011;29019;47.630;8.262;2023-05-31T23:52:46;3.60;;;2.65;;
27822;SDS011;29019;47.630;8.262;2023-05-31T23:56:47;2.70;;;2.17;;
